• Join FlightAware (Why Join?)
  • Login
  • US Flag 
07:19AM EST


 

Airport Tracker/Info


-or-


 

Live Flight TrackerFlight Track Log ✈ EVA2 ✈ 30-Jul-2014 ✈ RCTP / TPE - KLAX

Flight Track Log - Related Links

Times and Time Zones

All times are in EDT time to prevent confusion due to time zone crossing. See the EVA2 flight status page for this flight to view local times or setup timezone preferences in your user account.

Time Position Orientation Groundspeed Altitude Reporting Facility
EDT Latitude Longitude Course Direction KTS MPH feet Rate Location/Type
07:56AM 25.3729 121.7312 58° Northeast  Level FlightAware Approximate
07:57AM 25.4496 121.8601 56° Northeast  Level FlightAware Approximate
07:58AM 25.5267 121.9887 56° Northeast  Level FlightAware Approximate
07:59AM 25.6034 122.1177 57° Northeast  Level FlightAware Approximate
08:00AM 25.6791 122.2475 57° Northeast  Level FlightAware Approximate
08:01AM 25.7541 122.3779 58° Northeast  Level FlightAware Approximate
08:02AM 25.8287 122.5086 58° Northeast  Level FlightAware Approximate
08:03AM 25.9020 122.6403 58° Northeast  Level FlightAware Approximate
08:04AM 25.9770 122.7706 61° Northeast  Level FlightAware Approximate
08:05AM 26.0471 122.9046 58° Northeast  Level FlightAware Approximate
08:06AM 26.1208 123.0363 57° Northeast  Level FlightAware Approximate
08:07AM 26.1961 123.1669 57° Northeast  Level FlightAware Approximate
08:08AM 26.2722 123.2971 57° Northeast  Level FlightAware Approximate
08:09AM 26.3481 123.4275 57° Northeast  Level FlightAware Approximate
08:10AM 26.4227 123.5589 59° Northeast  Level FlightAware Approximate
08:11AM 26.4944 123.6924 59° Northeast  Level FlightAware Approximate
08:12AM 26.5660 123.8260 59° Northeast  Level FlightAware Approximate
08:13AM 26.6375 123.9598 59° Northeast  Level FlightAware Approximate
08:14AM 26.7152 124.0892 55° Northeast  Level FlightAware Approximate
08:15AM 26.7941 124.2179 55° Northeast  Level FlightAware Approximate
08:16AM 26.8729 124.3467 56° Northeast  Level FlightAware Approximate
08:17AM 26.9517 124.4756 56° Northeast  Level FlightAware Approximate
08:18AM 27.0303 124.6048 56° Northeast  Level FlightAware Approximate
08:19AM 27.1087 124.7341 56° Northeast  Level FlightAware Approximate
08:20AM 27.1871 124.8636 56° Northeast  Level FlightAware Approximate
08:21AM 27.2653 124.9933 56° Northeast  Level FlightAware Approximate
08:22AM 27.3434 125.1232 56° Northeast  Level FlightAware Approximate
08:23AM 27.4214 125.2533 56° Northeast  Level FlightAware Approximate
08:24AM 27.4993 125.3836 56° Northeast  Level FlightAware Approximate
08:25AM 27.5771 125.5140 56° Northeast  Level FlightAware Approximate
08:26AM 27.6547 125.6446 56° Northeast  Level FlightAware Approximate
08:27AM 27.7322 125.7754 56° Northeast  Level FlightAware Approximate
08:28AM 27.8096 125.9064 56° Northeast  Level FlightAware Approximate
08:29AM 27.8869 126.0376 56° Northeast  Level FlightAware Approximate
08:30AM 27.9640 126.1690 56° Northeast  Level FlightAware Approximate
08:31AM 28.0409 126.3006 56° Northeast  Level FlightAware Approximate
08:32AM 28.1178 126.4324 57° Northeast  Level FlightAware Approximate
08:33AM 28.1944 126.5644 57° Northeast  Level FlightAware Approximate
08:34AM 28.2710 126.6965 57° Northeast  Level FlightAware Approximate
08:35AM 28.3474 126.8289 57° Northeast  Level FlightAware Approximate
08:36AM 28.4245 126.9609 56° Northeast  Level FlightAware Approximate
08:37AM 28.5014 127.0931 56° Northeast  Level FlightAware Approximate
08:38AM 28.5782 127.2255 57° Northeast  Level FlightAware Approximate
08:39AM 28.6549 127.3580 57° Northeast  Level FlightAware Approximate
08:40AM 28.7314 127.4908 57° Northeast  Level FlightAware Approximate
08:41AM 28.8078 127.6238 57° Northeast  Level FlightAware Approximate
08:42AM 28.8841 127.7569 57° Northeast  Level FlightAware Approximate
08:43AM 28.9603 127.8903 57° Northeast  Level FlightAware Approximate
08:44AM 29.0363 128.0238 57° Northeast  Level FlightAware Approximate
08:45AM 29.1122 128.1576 57° Northeast  Level FlightAware Approximate
08:46AM 29.1877 128.2917 59° Northeast  Level FlightAware Approximate
08:47AM 29.2594 128.4286 59° Northeast  Level FlightAware Approximate
08:48AM 29.3309 128.5658 59° Northeast  Level FlightAware Approximate
08:49AM 29.4033 128.7024 57° Northeast  Level FlightAware Approximate
08:50AM 29.4786 128.8371 57° Northeast  Level FlightAware Approximate
08:51AM 29.5536 128.9720 57° Northeast  Level FlightAware Approximate
08:52AM 29.6286 129.1071 57° Northeast  Level FlightAware Approximate
08:53AM 29.7034 129.2425 57° Northeast  Level FlightAware Approximate
08:54AM 29.7781 129.3780 58° Northeast  Level FlightAware Approximate
08:55AM 29.8526 129.5137 58° Northeast  Level FlightAware Approximate
08:56AM 29.9270 129.6496 58° Northeast  Level FlightAware Approximate
08:57AM 30.0013 129.7858 58° Northeast  Level FlightAware Approximate
08:58AM 30.0744 129.9229 58° Northeast  Level FlightAware Approximate
08:59AM 30.1473 130.0602 58° Northeast  Level FlightAware Approximate
09:00AM 30.2200 130.1977 58° Northeast  Level FlightAware Approximate
09:01AM 30.2927 130.3354 59° Northeast  Level FlightAware Approximate
09:02AM 30.3651 130.4733 59° Northeast  Level FlightAware Approximate
09:03AM 30.4375 130.6114 59° Northeast  Level FlightAware Approximate
09:04AM 30.5096 130.7497 59° Northeast  Level FlightAware Approximate
09:05AM 30.5817 130.8882 59° Northeast  Level FlightAware Approximate
09:06AM 30.6536 131.0270 59° Northeast  Level FlightAware Approximate
09:07AM 30.7253 131.1659 59° Northeast  Level FlightAware Approximate
09:08AM 30.7969 131.3051 59° Northeast  Level FlightAware Approximate
09:09AM 30.8684 131.4444 59° Northeast  Level FlightAware Approximate
09:10AM 30.9397 131.5840 59° Northeast  Level FlightAware Approximate
09:11AM 31.0108 131.7237 59° Northeast  Level FlightAware Approximate
09:12AM 31.0818 131.8637 59° Northeast  Level FlightAware Approximate
09:13AM 31.1534 132.0034 59° Northeast  Level FlightAware Approximate
09:14AM 31.2249 132.1432 59° Northeast  Level FlightAware Approximate
09:15AM 31.2962 132.2833 59° Northeast  Level FlightAware Approximate
09:16AM 31.3673 132.4236 59° Northeast  Level FlightAware Approximate
09:17AM 31.4384 132.5641 59° Northeast  Level FlightAware Approximate
09:18AM 31.5092 132.7048 59° Northeast  Level FlightAware Approximate
09:19AM 31.5799 132.8458 59° Northeast  Level FlightAware Approximate
09:20AM 31.6504 132.9869 60° Northeast  Level FlightAware Approximate
09:21AM 31.7208 133.1283 60° Northeast  Level FlightAware Approximate
09:22AM 31.7910 133.2698 60° Northeast  Level FlightAware Approximate
09:23AM 31.8611 133.4116 60° Northeast  Level FlightAware Approximate
09:24AM 31.9310 133.5536 60° Northeast  Level FlightAware Approximate
09:25AM 32.0008 133.6958 60° Northeast  Level FlightAware Approximate
09:26AM 32.0704 133.8383 60° Northeast  Level FlightAware Approximate
09:27AM 32.1397 133.9810 60° Northeast  Level FlightAware Approximate
09:28AM 32.2086 134.1241 60° Northeast  Level FlightAware Approximate
09:29AM 32.2773 134.2675 60° Northeast  Level FlightAware Approximate
09:30AM 32.3459 134.4110 60° Northeast  Level FlightAware Approximate
09:31AM 32.4143 134.5548 61° Northeast  Level FlightAware Approximate
09:32AM 32.4826 134.6988 61° Northeast  Level FlightAware Approximate
09:33AM 32.5507 134.8430 61° Northeast  Level FlightAware Approximate
09:34AM 32.6186 134.9874 61° Northeast  Level FlightAware Approximate
09:35AM 32.6866 135.1319 61° Northeast  Level FlightAware Approximate
09:36AM 32.7545 135.2765 61° Northeast  Level FlightAware Approximate
09:37AM 32.8222 135.4214 61° Northeast  Level FlightAware Approximate
09:38AM 32.8898 135.5666 61° Northeast  Level FlightAware Approximate
09:39AM 32.9571 135.7119 61° Northeast  Level FlightAware Approximate
09:40AM 33.0243 135.8575 61° Northeast  Level FlightAware Approximate
09:41AM 33.0914 136.0032 61° Northeast  Level FlightAware Approximate
09:42AM 33.1582 136.1492 61° Northeast  Level FlightAware Approximate
09:43AM 33.2249 136.2955 61° Northeast  Level FlightAware Approximate
09:44AM 33.2915 136.4419 61° Northeast  Level FlightAware Approximate
09:44AM 33.2996 136.1180 76° East 534 615 31,000  Level FlightAware ADS-B
09:45AM 33.3578 136.5886 62° Northeast  Level FlightAware Approximate
09:45AM 33.3251 136.2376 76° East 532 612 31,000  Level FlightAware ADS-B
09:46AM 33.3463 136.3374 76° East 531 611 31,000  Level FlightAware ADS-B
09:47AM 33.3824 136.5079 76° East 532 612 31,000  Level FlightAware ADS-B
09:47AM 33.4080 136.6301 76° East 532 612 31,000  Level FlightAware ADS-B
09:48AM 33.4323 136.7463 76° East 531 611 31,000  Level FlightAware ADS-B
09:49AM 33.4682 136.9188 76° East 530 610 31,000  Level FlightAware ADS-B
09:50AM 33.4918 137.0331 77° East 526 605 31,000  Level FlightAware ADS-B
09:50AM 33.5151 137.1467 77° East 526 605 31,000  Level FlightAware ADS-B
09:51AM 33.5388 137.2626 77° East 528 608 31,000  Level FlightAware ADS-B
09:52AM 33.5620 137.3763 77° East 527 606 31,000  Level FlightAware ADS-B
09:52AM 33.5849 137.4897 77° East 523 602 31,000  Level FlightAware ADS-B
09:53AM 33.6074 137.6010 77° East 522 601 31,000  Level FlightAware ADS-B
09:54AM 33.6298 137.7132 77° East 526 605 31,000  Level FlightAware ADS-B
09:54AM 33.6526 137.8270 77° East 527 606 31,000  Level FlightAware ADS-B
09:55AM 33.6751 137.9408 78° East 521 600 31,000  Level FlightAware ADS-B
09:56AM 33.6974 138.0541 77° East 517 595 31,000  Level FlightAware ADS-B
09:57AM 33.7312 138.2225 76° East 514 592 31,000  Level FlightAware ADS-B
09:57AM 33.7589 138.3059 64° Northeast 515 593 31,000  Level FlightAware ADS-B
09:58AM 33.8166 138.4221 59° Northeast 519 597 31,000  Level FlightAware ADS-B
09:59AM 33.8639 138.5142 58° Northeast 520 598 31,000  Level FlightAware ADS-B
09:59AM 33.9182 138.6199 58° Northeast 520 598 31,000  Level FlightAware ADS-B
10:00AM 33.9679 138.7168 59° Northeast 522 601 31,000  Level FlightAware ADS-B
10:01AM 33.9873 138.7546 58° Northeast 523 602 31,000  Level FlightAware ADS-B (EGKA / ESH)
10:03AM 34.1419 139.0575 59° Northeast 527 606 31,000  Level FlightAware ADS-B (EGKA / ESH)
10:04AM 34.2775 139.3253 59° Northeast 528 608 31,000  Level FlightAware ADS-B (EGKA / ESH)
10:05AM 34.3327 139.4350 59° Northeast 530 610 31,000  Level FlightAware ADS-B (EGKA / ESH)
10:06AM 34.3724 139.5139 59° Northeast 529 609 31,000  Level FlightAware ADS-B (EGKA / ESH)
10:06AM 34.4293 139.6275 59° Northeast 529 609 31,000  Level FlightAware ADS-B (EGKA / ESH)
10:07AM 34.4664 139.7016 59° Northeast 530 610 31,000  Level FlightAware ADS-B (EGKA / ESH)
10:08AM 34.5241 139.8177 59° Northeast 530 610 31,000  Level FlightAware ADS-B (EGKA / ESH)
10:08AM 34.5572 139.8841 59° Northeast 532 612 31,000  Level FlightAware ADS-B (EGKA / ESH)
10:09AM 34.5988 139.9682 59° Northeast 532 612 31,000  Level FlightAware ADS-B (EGKA / ESH)
10:09AM 34.6383 140.0480 59° Northeast 533 613 31,000  Level FlightAware ADS-B (EGKA / ESH)
10:10AM 34.6956 140.1640 59° Northeast 533 613 31,000  Level FlightAware ADS-B (EGKA / ESH)
10:10AM 34.7342 140.2426 59° Northeast 533 613 31,000  Level FlightAware ADS-B (EGKA / ESH)
10:11AM 34.7636 140.3022 59° Northeast 533 613 31,000  Level FlightAware ADS-B (RJTF)
10:11AM 34.7899 140.3559 59° Northeast 533 613 31,000  Level FlightAware ADS-B (EGKA / ESH)
10:11AM 34.8013 140.3793 59° Northeast 532 612 31,000  Level FlightAware ADS-B (RJTF)
10:12AM 34.8463 140.4714 59° Northeast 532 612 31,000  Level FlightAware ADS-B (EGKA / ESH)
10:12AM 34.8837 140.5480 59° Northeast 532 612 31,000  Level FlightAware ADS-B (EGKA / ESH)
10:13AM 34.9223 140.6272 60° Northeast 532 612 31,000  Level FlightAware ADS-B (EGKA / ESH)
10:13AM 34.9259 140.6347 59° Northeast 531 611 31,000  Level FlightAware ADS-B (RJTF)
10:14AM 34.9764 140.7388 60° Northeast 530 610 31,000  Level FlightAware ADS-B (EGKA / ESH)
10:14AM 34.9906 140.7682 59° Northeast 530 610 31,000  Level FlightAware ADS-B (RJTF)
10:14AM 35.0318 140.8533 60° Northeast 530 610 31,000  Level FlightAware ADS-B (EGKA / ESH)
10:15AM 35.0549 140.9012 59° Northeast 530 610 31,000  Level FlightAware ADS-B (RJTF)
10:15AM 35.0885 140.9708 60° Northeast 532 612 31,000  Level FlightAware ADS-B (EGKA / ESH)
10:15AM 35.1011 140.9972 59° Northeast 532 612 31,000  Level FlightAware ADS-B (RJTF)
10:16AM 35.1255 141.0479 60° Northeast 532 612 31,000  Level FlightAware ADS-B (EGKA / ESH)
10:16AM 35.1398 141.0776 59° Northeast 531 611 31,000  Level FlightAware ADS-B (RJTF)
10:16AM 35.1628 141.1255 60° Northeast 532 612 31,000  Level FlightAware ADS-B (EGKA / ESH)
10:17AM 35.2202 141.2457 60° Northeast 532 612 31,000  Level FlightAware ADS-B (EGKA / ESH)
10:17AM 35.2388 141.2849 59° Northeast 531 611 31,000  Level FlightAware ADS-B (RJTF)
10:17AM 35.2576 141.3242 60° Northeast 531 611 31,000  Level FlightAware ADS-B (EGKA / ESH)
10:18AM 35.3285 141.4734 60° Northeast 531 611 31,000  Level FlightAware ADS-B (EGKA / ESH)
10:18AM 35.3307 141.4780 59° Northeast 531 611 31,000  Level FlightAware ADS-B (RJTF)
10:19AM 35.3673 141.5552 60° Northeast 531 611 31,000  Level FlightAware ADS-B (EGKA / ESH)
10:19AM 35.4050 141.6352 60° Northeast 531 611 31,000  Level FlightAware ADS-B (EGKA / ESH)
10:20AM 35.4413 141.7120 60° Northeast 530 610 31,000  Level FlightAware ADS-B (EGKA / ESH)
10:20AM 35.4784 141.7910 60° Northeast 530 610 31,000  Level FlightAware ADS-B (EGKA / ESH)
10:21AM 35.5137 141.8661 60° Northeast 530 610 31,000  Level FlightAware ADS-B (EGKA / ESH)
10:22AM 35.5691 141.9844 60° Northeast 530 610 31,000  Level FlightAware ADS-B (EGKA / ESH)
10:22AM 35.6076 142.0668 60° Northeast 530 610 31,000  Level FlightAware ADS-B (EGKA / ESH)
10:24AM 35.7668 142.4103 61° Northeast 533 613 31,000  Level FlightAware ADS-B
10:25AM 35.8128 142.5101 61° Northeast 532 612 31,000  Level FlightAware ADS-B
10:25AM 35.8640 142.6218 61° Northeast 532 612 31,000  Level FlightAware ADS-B
10:26AM 35.9034 142.7076 61° Northeast 533 613 31,000  Level FlightAware ADS-B
10:28AM 36.0422 143.0128 61° Northeast 534 615 31,000  Level FlightAware ADS-B
10:29AM 36.0958 143.1312 61° Northeast 535 616 31,000  Level FlightAware ADS-B
10:30AM 36.1998 143.3623 61° Northeast 537 618 31,000  Level FlightAware ADS-B
10:31AM 36.2453 143.4639 61° Northeast 539 620 31,000  Level FlightAware ADS-B
10:33AM 36.3816 143.7321 58° Northeast  Level Estimated
10:34AM 36.4557 143.8788 58° Northeast  Level Estimated
10:35AM 36.5296 144.0257 58° Northeast  Level Estimated
10:36AM 36.6034 144.1730 58° Northeast  Level Estimated
10:37AM 36.6769 144.3205 58° Northeast  Level Estimated
10:38AM 36.7503 144.4683 58° Northeast  Level Estimated
10:39AM 36.8235 144.6164 58° Northeast  Level Estimated
10:40AM 36.8965 144.7647 58° Northeast  Level Estimated
10:41AM 36.9693 144.9134 58° Northeast  Level Estimated
10:42AM 37.0174 145.0772 70° East  Level FlightAware Approximate
10:43AM 37.0653 145.2412 70° East  Level FlightAware Approximate
10:44AM 37.1129 145.4053 70° East  Level FlightAware Approximate
10:45AM 37.1603 145.5697 70° East  Level FlightAware Approximate
10:46AM 37.2322 145.7196 74° East  Level Estimated
10:47AM 37.2697 145.8883 74° East  Level FlightAware Approximate
10:48AM 37.3070 146.0571 74° East  Level FlightAware Approximate
10:49AM 37.3440 146.2260 75° East  Level FlightAware Approximate
10:50AM 37.3808 146.3951 75° East  Level FlightAware Approximate
10:51AM 37.4174 146.5644 75° East  Level FlightAware Approximate
10:52AM 37.4537 146.7339 75° East  Level FlightAware Approximate
10:53AM 37.4897 146.9035 75° East  Level FlightAware Approximate
10:54AM 37.5256 147.0733 75° East  Level FlightAware Approximate
10:55AM 37.5612 147.2432 75° East  Level FlightAware Approximate
10:56AM 37.5965 147.4133 75° East  Level FlightAware Approximate
10:57AM 37.6316 147.5836 75° East  Level FlightAware Approximate
10:58AM 37.6665 147.7540 75° East  Level FlightAware Approximate
10:59AM 37.7011 147.9246 76° East  Level FlightAware Approximate
11:00AM 37.7354 148.0953 76° East  Level FlightAware Approximate
11:01AM 37.7696 148.2662 76° East  Level FlightAware Approximate
11:02AM 37.8034 148.4373 76° East  Level FlightAware Approximate
11:03AM 37.8370 148.6085 76° East  Level FlightAware Approximate
11:04AM 37.8704 148.7799 76° East  Level FlightAware Approximate
11:05AM 37.9035 148.9514 76° East  Level FlightAware Approximate
11:06AM 37.9364 149.1231 76° East  Level FlightAware Approximate
11:07AM 37.9690 149.2949 76° East  Level FlightAware Approximate
11:08AM 38.0014 149.4669 77° East  Level FlightAware Approximate
11:09AM 38.0335 149.6390 77° East  Level FlightAware Approximate
11:10AM 38.0654 149.8113 77° East  Level FlightAware Approximate
11:11AM 38.1324 149.9666 66° East  Level Estimated
11:12AM 38.1879 150.1292 67° East  Level FlightAware Approximate
11:13AM 38.2431 150.2921 67° East  Level FlightAware Approximate
11:14AM 38.2981 150.4552 67° East  Level FlightAware Approximate
11:15AM 38.3528 150.6185 67° East  Level FlightAware Approximate
11:16AM 38.4074 150.7822 67° East  Level FlightAware Approximate
11:17AM 38.4617 150.9460 67° East  Level FlightAware Approximate
11:18AM 38.5158 151.1101 67° East  Level FlightAware Approximate
11:19AM 38.5696 151.2744 67° East  Level FlightAware Approximate
11:20AM 38.6233 151.4390 67° East  Level FlightAware Approximate
11:21AM 38.6767 151.6039 67° East  Level FlightAware Approximate
11:22AM 38.7298 151.7689 68° East  Level FlightAware Approximate
11:23AM 38.7828 151.9343 68° East  Level FlightAware Approximate
11:24AM 38.8355 152.0998 68° East  Level FlightAware Approximate
11:25AM 38.8879 152.2656 68° East  Level FlightAware Approximate
11:26AM 38.9402 152.4317 68° East  Level FlightAware Approximate
11:27AM 38.9921 152.5980 68° East  Level FlightAware Approximate
11:28AM 39.0439 152.7646 68° East  Level FlightAware Approximate
11:29AM 39.0954 152.9313 68° East  Level FlightAware Approximate
11:30AM 39.1467 153.0984 68° East  Level FlightAware Approximate
11:31AM 39.1978 153.2657 68° East  Level FlightAware Approximate
11:32AM 39.2500 153.4379 69° East  Level FlightAware Approximate
11:33AM 39.3020 153.6104 69° East  Level FlightAware Approximate
11:34AM 39.3537 153.7831 69° East  Level FlightAware Approximate
11:35AM 39.4052 153.9561 69° East  Level FlightAware Approximate
11:36AM 39.4564 154.1294 69° East  Level FlightAware Approximate
11:37AM 39.5073 154.3029 69° East  Level FlightAware Approximate
11:38AM 39.5580 154.4767 69° East  Level FlightAware Approximate
11:39AM 39.6085 154.6507 69° East  Level FlightAware Approximate
11:40AM 39.6586 154.8250 69° East  Level FlightAware Approximate
11:41AM 39.7085 154.9995 70° East  Level FlightAware Approximate
11:42AM 39.7582 155.1743 70° East  Level FlightAware Approximate
11:43AM 39.8076 155.3494 70° East  Level FlightAware Approximate
11:44AM 39.8567 155.5246 70° East  Level FlightAware Approximate
11:45AM 39.9056 155.7002 70° East  Level FlightAware Approximate
11:46AM 39.9542 155.8760 70° East  Level FlightAware Approximate
11:47AM 40.0025 156.0520 70° East  Level FlightAware Approximate
11:48AM 40.0506 156.2283 70° East  Level FlightAware Approximate
11:49AM 40.0984 156.4048 70° East  Level FlightAware Approximate
11:50AM 40.1459 156.5816 71° East  Level FlightAware Approximate
11:51AM 40.1931 156.7586 71° East  Level FlightAware Approximate
11:52AM 40.2401 156.9359 71° East  Level FlightAware Approximate
11:53AM 40.2869 157.1134 71° East  Level FlightAware Approximate
11:54AM 40.3333 157.2912 71° East  Level FlightAware Approximate
11:55AM 40.3795 157.4692 71° East  Level FlightAware Approximate
11:56AM 40.4254 157.6474 71° East  Level FlightAware Approximate
11:57AM 40.4710 157.8259 71° East  Level FlightAware Approximate
11:58AM 40.5164 158.0047 71° East  Level FlightAware Approximate
11:59AM 40.5614 158.1837 72° East  Level FlightAware Approximate
12:00PM 40.6062 158.3629 72° East  Level FlightAware Approximate
12:01PM 40.6508 158.5423 72° East  Level FlightAware Approximate
12:02PM 40.6950 158.7220 72° East  Level FlightAware Approximate
12:03PM 40.7390 158.9019 72° East  Level FlightAware Approximate
12:04PM 40.7827 159.0821 72° East  Level FlightAware Approximate
12:05PM 40.8261 159.2625 72° East  Level FlightAware Approximate
12:06PM 40.8692 159.4432 72° East  Level FlightAware Approximate
12:07PM 40.9120 159.6241 73° East  Level FlightAware Approximate
12:08PM 40.9546 159.8052 73° East  Level FlightAware Approximate
12:09PM 40.9969 159.9865 73° East  Level FlightAware Approximate
12:10PM 41.0416 160.1672 72° East  Level FlightAware Approximate
12:11PM 41.0862 160.3478 72° East  Level FlightAware Approximate
12:12PM 41.1306 160.5286 72° East  Level FlightAware Approximate
12:13PM 41.1746 160.7097 72° East  Level FlightAware Approximate
12:14PM 41.2184 160.8911 72° East  Level FlightAware Approximate
12:15PM 41.2619 161.0726 72° East  Level FlightAware Approximate
12:16PM 41.3051 161.2544 72° East  Level FlightAware Approximate
12:17PM 41.3480 161.4365 73° East  Level FlightAware Approximate
12:18PM 41.3907 161.6188 73° East  Level FlightAware Approximate
12:19PM 41.4330 161.8013 73° East  Level FlightAware Approximate
12:20PM 41.4751 161.9841 73° East  Level FlightAware Approximate
12:21PM 41.5168 162.1671 73° East  Level FlightAware Approximate
12:22PM 41.5583 162.3503 73° East  Level FlightAware Approximate
12:23PM 41.5995 162.5338 73° East  Level FlightAware Approximate
12:24PM 41.6404 162.7175 73° East  Level FlightAware Approximate
12:25PM 41.6810 162.9014 73° East  Level FlightAware Approximate
12:26PM 41.7213 163.0856 74° East  Level FlightAware Approximate
12:27PM 41.7613 163.2700 74° East  Level FlightAware Approximate
12:28PM 41.8010 163.4546 74° East  Level FlightAware Approximate
12:29PM 41.8404 163.6395 74° East  Level FlightAware Approximate
12:30PM 41.8795 163.8246 74° East  Level FlightAware Approximate
12:31PM 41.9184 164.0099 74° East  Level FlightAware Approximate
12:32PM 41.9569 164.1954 74° East  Level FlightAware Approximate
12:33PM 41.9951 164.3812 74° East  Level FlightAware Approximate
12:34PM 42.0330 164.5672 75° East  Level FlightAware Approximate
12:35PM 42.0707 164.7534 75° East  Level FlightAware Approximate
12:36PM 42.1080 164.9398 75° East  Level FlightAware Approximate
12:37PM 42.1452 165.1263 75° East  Level FlightAware Approximate
12:38PM 42.1823 165.3131 75° East  Level FlightAware Approximate
12:39PM 42.2190 165.5001 75° East  Level FlightAware Approximate
12:40PM 42.2554 165.6872 75° East  Level FlightAware Approximate
12:41PM 42.2915 165.8746 75° East  Level FlightAware Approximate
12:42PM 42.3273 166.0623 75° East  Level FlightAware Approximate
12:43PM 42.3628 166.2501 76° East  Level FlightAware Approximate
12:44PM 42.3980 166.4381 76° East  Level FlightAware Approximate
12:45PM 42.4329 166.6264 76° East  Level FlightAware Approximate
12:46PM 42.4675 166.8148 76° East  Level FlightAware Approximate
12:47PM 42.5018 167.0035 76° East  Level FlightAware Approximate
12:48PM 42.5357 167.1924 76° East  Level FlightAware Approximate
12:48PM 42.5333 167.1500 76° East 533 613 33,000  Level Oakland Oceanic (ODAPS)
01:02PM 42.9833 169.8833 79° East 525 604 33,000  Level Oakland Oceanic (ODAPS)
01:03PM 43.0000 170.0000 71° East 540 621 33,000  Level Oakland Oceanic (ODAPS)
01:16PM 43.6167 172.6000 73° East 539 620 33,000  Level Oakland Oceanic (ODAPS)
01:30PM 44.2000 175.3500 75° East 532 612 33,000  Level Oakland Oceanic (ODAPS)
01:43PM 44.7000 178.1000 77° East 540 621 33,000  Level Oakland Oceanic (ODAPS)
01:53PM 45.0000 180.0000 78° East 521 600 33,000 60 Level Oakland Oceanic (ODAPS)
01:57PM 45.1333 -179.0500 79° East 515 593 34,000  Climbing Oakland Oceanic (ODAPS)
02:11PM 45.4833 -176.2833 81° East 509 586 34,000  Level Oakland Oceanic (ODAPS)
02:25PM 45.7500 -173.5833 83° East 470 541 34,000  Level Oakland Oceanic (ODAPS)
02:39PM 45.9333 -171.0667 84° East 475 547 34,000  Level Oakland Oceanic (ODAPS)
02:45PM 46.0000 -170.0000 86° East 491 565 34,000  Level Oakland Oceanic (ODAPS)
02:53PM 46.0500 -168.4500 87° East 502 578 34,000  Level Oakland Oceanic (ODAPS)
03:07PM 46.1000 -165.7500 89° East 505 581 34,000  Level Oakland Oceanic (ODAPS)
03:21PM 46.0833 -162.9833 91° East 507 583 35,000  Climbing Oakland Oceanic (ODAPS)
03:34PM 46.0000 -160.1500 90° East 512 589 35,000  Level Oakland Oceanic (ODAPS)
03:36PM 46.0000 -160.0000 95° East 531 611 35,000  Level Oakland Oceanic (ODAPS)
03:48PM 45.8167 -157.2333 97° East 539 620 35,000  Level Oakland Oceanic (ODAPS)
04:02PM 45.5500 -154.3333 99° East 537 618 35,000  Level Oakland Oceanic (ODAPS)
04:16PM 45.2000 -151.4333 101° East 541 623 35,000  Level Oakland Oceanic (ODAPS)
04:23PM 45.0000 -150.0000 102° East 524 603 35,000  Level Oakland Oceanic (ODAPS)
04:30PM 44.7667 -148.5667 103° East 521 600 35,000  Level Oakland Oceanic (ODAPS)
04:44PM 44.2833 -145.7833 105° East 516 594 35,000  Level Oakland Oceanic (ODAPS)
04:58PM 43.7333 -143.1333 107° East 507 583 35,000  Level Oakland Oceanic (ODAPS)
05:11PM 43.1500 -140.6167 108° East 494 568 36,000  Climbing Oakland Oceanic (ODAPS)
05:15PM 43.0000 -140.0000 108° East 489 563 36,000  Level Oakland Oceanic (ODAPS)
05:25PM 42.5500 -138.2167 110° East 482 555 36,000  Level Oakland Oceanic (ODAPS)
05:39PM 41.9000 -135.9000 111° Southeast 483 556 36,000  Level Oakland Oceanic (ODAPS)
05:53PM 41.2167 -133.6000 113° Southeast 479 551 36,000  Level Oakland Oceanic (ODAPS)
06:07PM 40.4833 -131.3833 114° Southeast 481 554 36,000  Level Oakland Oceanic (ODAPS)
06:16PM 40.0000 -130.0000 122° Southeast 472 543 36,000  Level Oakland Oceanic (ODAPS)
06:21PM 39.6500 -129.2833 123° Southeast 473 544 36,000 -60 Level Oakland Oceanic (ODAPS)
06:34PM 38.6844 -127.4081 111° Southeast 469 540 35,900  Descending Oakland Center
06:35PM 38.6170 -127.2812 124° Southeast 473 544 36,000 240 Climbing FlightAware Transoceanic
06:35PM 38.6500 -127.3333 125° Southeast 470 541 36,000  Level Oakland Oceanic (ODAPS)
06:35PM 38.6133 -127.2717 125° Southeast 469 540 36,000  Level Oakland Center
06:36PM 38.5419 -127.1405 124° Southeast 473 544 36,000 -120 Level FlightAware Transoceanic
06:36PM 38.5389 -127.1342 125° Southeast 469 540 35,900  Descending Oakland Center
06:37PM 38.4667 -127.0000 111° Southeast 473 544 36,000 60 Climbing FlightAware Transoceanic
06:37PM 38.4558 -126.9656 122° Southeast 469 540 36,000  Level Oakland Center
06:38PM 38.4209 -126.8491 111° Southeast 473 544 36,000  Level FlightAware Transoceanic
06:38PM 38.4072 -126.8094 112° Southeast 475 547 36,000  Level Oakland Center
06:39PM 38.3749 -126.6985 111° Southeast 473 544 36,000 -120 Level FlightAware Transoceanic
06:39PM 38.3522 -126.6558 115° Southeast 475 547 35,900  Descending Oakland Center
06:40PM 38.3287 -126.5480 111° Southeast 473 544 36,000 60 Climbing FlightAware Transoceanic
06:40PM 38.2967 -126.5039 115° Southeast 475 547 36,000  Level Oakland Center
06:41PM 38.2417 -126.3533 115° Southeast 474 545 36,000  Level Oakland Center
06:42PM 38.1806 -126.1875 115° Southeast 474 545 36,000  Level Oakland Center
06:43PM 38.1242 -126.0361 115° Southeast 475 547 36,000  Level Oakland Center
06:44PM 38.0669 -125.8847 116° Southeast 476 548 36,000 -60 Level Oakland Center
06:45PM 38.0119 -125.7336 115° Southeast 476 548 35,900  Descending Oakland Center
06:46PM 37.9550 -125.5819 115° Southeast 476 548 36,000  Climbing Oakland Center
06:47PM 37.8869 -125.4014 115° Southeast 476 548 35,900  Descending Oakland Center
06:48PM 37.8292 -125.2508 116° Southeast 475 547 36,000  Climbing Oakland Center
06:49PM 37.7719 -125.1011 116° Southeast 475 547 36,000 -60 Level Oakland Center
06:51PM 37.7144 -124.9506 116° Southeast 477 549 35,900 -60 Descending Oakland Center
06:52PM 37.6567 -124.8006 116° Southeast 476 548 35,900  Level Oakland Center
06:53PM 37.5975 -124.6489 116° Southeast 480 552 36,000 120 Climbing Oakland Center
06:58PM 37.1754 -123.8047 124° Southeast 472 543 37,000 120 Climbing FlightAware ADS-B
07:00PM 37.0285 -123.5299 124° Southeast 470 541 37,000  Level FlightAware ADS-B
07:02PM 36.9035 -123.2975 124° Southeast 469 540 37,000  Level FlightAware ADS-B
07:03PM 36.8330 -123.1674 124° Southeast 468 539 37,000  Level FlightAware ADS-B
07:04PM 36.7556 -123.0250 124° Southeast 469 540 37,000  Level FlightAware ADS-B
07:05PM 36.7022 -122.9272 124° Southeast 468 539 37,000  Level FlightAware ADS-B
07:06PM 36.6685 -122.8654 124° Southeast 467 537 37,000  Level FlightAware ADS-B
07:06PM 36.6065 -122.7523 124° Southeast 467 537 37,000  Level FlightAware ADS-B
07:07PM 36.5592 -122.6662 124° Southeast 468 539 37,000  Level FlightAware ADS-B
07:08PM 36.4780 -122.5190 124° Southeast 468 539 37,000  Level FlightAware ADS-B
07:09PM 36.4316 -122.4200 116° Southeast 472 543 37,000  Level FlightAware ADS-B
07:09PM 36.4046 -122.3370 111° Southeast 475 547 37,000  Level FlightAware ADS-B
07:09PM 36.4023 -122.3290 111° Southeast 475 547 37,000  Level FlightAware ADS-B
07:11PM 36.3382 -122.1233 111° Southeast 475 547 37,000  Level FlightAware ADS-B
07:11PM 36.3062 -122.0210 111° Southeast 474 545 37,000  Level FlightAware ADS-B
07:12PM 36.2790 -121.9335 111° Southeast 475 547 37,000  Level FlightAware ADS-B
07:13PM 36.2457 -121.8270 111° Southeast 475 547 37,000  Level FlightAware ADS-B
07:13PM 36.2209 -121.7480 111° Southeast 475 547 37,000  Level FlightAware ADS-B
07:14PM 36.1947 -121.6758 111° Southeast 472 543 37,000  Level Los Angeles Center
07:15PM 36.1472 -121.5222 111° Southeast 475 547 37,000  Level Los Angeles Center
07:16PM 36.0997 -121.3714 111° Southeast 475 547 37,000  Level Los Angeles Center
07:17PM 36.0503 -121.2194 112° Southeast 475 547 37,000  Level Los Angeles Center
07:22PM 35.7764 -120.3683 112° Southeast 486 559 37,000  Level FlightAware ADS-B (KCRQ)
07:23PM 35.7193 -120.1954 112° Southeast 485 558 37,000  Level FlightAware ADS-B (KCRQ)
07:28PM 35.3705 -119.7396 145° Southeast 457 526 37,000 -420 Level FlightAware ADS-B (KCRQ)
07:29PM 35.2503 -119.6365 145° Southeast 454 522 35,000 -2,400 Descending FlightAware ADS-B (KCRQ)
07:29PM 35.2106 -119.6024 145° Southeast 464 534 33,400 -2,700 Descending FlightAware ADS-B (KCRQ)
07:31PM 34.9549 -119.3843 145° Southeast 452 520 27,700 -2,460 Descending FlightAware ADS-B (KCRQ)
07:32PM 34.8818 -119.3223 145° Southeast 443 510 26,100 -2,220 Descending FlightAware ADS-B (KCRQ)
07:33PM 34.7555 -119.2157 145° Southeast 428 493 23,400 -2,100 Descending FlightAware ADS-B (KCRQ)
07:36PM 34.5412 -119.0355 145° Southeast 407 468 18,800 -1,860 Descending FlightAware ADS-B
07:39PM 34.1761 -118.8150 163° South 369 425 12,100 -1,380 Descending FlightAware ADS-B
07:42PM 34.0243 -118.6059 96° East 301 346 9,300 -900 Descending FlightAware ADS-B (KCRQ)
07:43PM 34.0211 -118.5677 96° East 295 339 9,100 -720 Descending FlightAware ADS-B (KCRQ)
07:43PM 34.0193 -118.5488 96° East 292 336 9,000 -1,140 Descending FlightAware ADS-B (OPMT / MUX)
07:44PM 34.0140 -118.4926 97° East 273 314 8,200 -1,140 Descending FlightAware ADS-B (KCRQ)
07:44PM 34.0134 -118.4280 84° East 268 308 7,500 -1,200 Descending FlightAware ADS-B (OPMT / MUX)
07:44PM 34.0151 -118.4070 84° East 265 305 7,200 -1,440 Descending FlightAware ADS-B (OPMT / MUX)
07:45PM 34.0169 -118.3844 84° East 262 302 6,800 -1,500 Descending FlightAware ADS-B (OPMT / MUX)
07:45PM 34.0182 -118.3682 84° East 259 298 6,500 -1,320 Descending FlightAware ADS-B (OPMT / MUX)
07:45PM 34.0194 -118.3530 85° East 256 295 6,300 -1,500 Descending FlightAware ADS-B (KCRQ)
07:45PM 34.0200 -118.3445 84° East 255 293 6,100 -1,440 Descending FlightAware ADS-B (OPMT / MUX)
07:46PM 34.0221 -118.3174 84° East 252 290 5,600 -1,320 Descending FlightAware ADS-B (KCRQ)
07:46PM 34.0244 -118.2909 84° East 249 287 5,300 -1,500 Descending FlightAware ADS-B (KCRQ)
07:46PM 34.0247 -118.2874 83° East 248 285 5,200 -1,200 Descending FlightAware ADS-B (OPMT / MUX)
07:46PM 34.0275 -118.2560 84° East 232 267 4,700 -840 Descending FlightAware ADS-B (KCRQ)
07:47PM 34.0288 -118.2413 84° East 222 255 4,600 -840 Descending FlightAware ADS-B (KCRQ)
07:47PM 34.0303 -118.2232 85° East 218 251 4,400 -1,020 Descending FlightAware ADS-B (OPMT / MUX)
07:47PM 34.0303 -118.2174 91° East 218 251 4,400 -600 Level FlightAware ADS-B (OPMT / MUX)
07:47PM 34.0298 -118.2125 101° East 216 249 4,300 -1,140 Descending FlightAware ADS-B (OPMT / MUX)
07:47PM 34.0275 -118.2048 112° Southeast 213 245 4,200 -1,380 Descending FlightAware ADS-B (OPMT / MUX)
07:47PM 34.0255 -118.2008 123° Southeast 211 243 4,100 -1,380 Descending FlightAware ADS-B (OPMT / MUX)
07:47PM 34.0219 -118.1957 132° Southeast 209 241 4,000 -1,200 Descending FlightAware ADS-B (OPMT / MUX)
07:47PM 34.0177 -118.1922 144° Southeast 207 238 3,900 -1,140 Descending FlightAware ADS-B (OPMT / MUX)
07:47PM 34.0142 -118.1902 151° Southeast 205 236 3,800 -1,200 Descending FlightAware ADS-B (OPMT / MUX)
07:47PM 34.0040 -118.1871 168° South 206 237 3,600 -1,140 Descending FlightAware ADS-B (OPMT / MUX)
07:48PM 33.9974 -118.1859 172° South 206 237 3,500 -1,200 Descending FlightAware ADS-B
07:48PM 33.9946 -118.1858 175° South 205 236 3,400 -1,500 Descending FlightAware ADS-B (OPMT / MUX)
07:48PM 33.9917 -118.1858 186° South 203 234 3,300 -1,140 Descending FlightAware ADS-B (OPMT / MUX)
07:48PM 33.9859 -118.1874 192° South 202 232 3,200 -1,140 Descending FlightAware ADS-B (OPMT / MUX)
07:48PM 33.9806 -118.1907 214° Southwest 198 228 3,100 -720 Descending FlightAware ADS-B
07:48PM 33.9727 -118.2064 259° West 188 216 2,900 -660 Descending FlightAware ADS-B
07:49PM 33.9701 -118.2278 263° West 186 214 2,700 -600 Descending FlightAware ADS-B (OPMT / MUX)
07:49PM 33.9707 -118.2218 262° West 187 215 2,700 -420 Level FlightAware ADS-B
07:49PM 33.9682 -118.2444 263° West 190 219 2,600 -900 Descending FlightAware ADS-B (OPMT / MUX)
07:49PM 33.9665 -118.2603 263° West 190 219 2,300 -960 Descending FlightAware ADS-B (OPMT / MUX)
07:50PM 33.9668 -118.2573 263° West 154 177 1,400 -780 Descending FlightAware ADS-B (KCRQ)
07:51PM 33.9572 -118.3639 263° West 167 192 800 -660 Descending Los Angeles Center
07:52PM 33.9522 -118.4153 263° West 155 178 200 -600 Descending Los Angeles Center
07:54PM 33.9425 -118.4081 228° Southwest  Level Estimated